Thursday, September 20, 2018, 1:07 PM EDT
Back to Local

KWRI, Mcguire Air Force Base

Location: Trenton, NJ, United States Lat: 40.017
Local Time: 1:07 PM EDT (17:07 GMT) Lon: -74.6
Time Zone: US/Eastern Elev: 134 ft

Show me the last for .
Show Decoded

2018-09-20 11:56 METAR KWRI 201556Z 08003KT 10SM OVC026 21/16 A3021 RMK AO2A CIG 023 RWY24 SLP229
                 T02110161 $ =
2018-09-20 10:56 METAR KWRI 201456Z 14006KT 10SM BKN020 21/16 A3020 RMK AO2A BKN V OVC SLP226
                 T02100160 52019 $ =
2018-09-20 10:46 METAR KWRI 201446Z 10004KT 10SM OVC020 21/16 A3021 RMK AO2A SLP229 $ =
2018-09-20 09:11 METAR KWRI 201311Z 06006KT 10SM BKN021 19/16 A3018 RMK AO2A CIG 021V029 BKN V
                 SCT CIG 020 RWY24 SLP219 $ =
2018-09-19 18:56 METAR KWRI 192256Z 12007KT 10SM CLR 23/21 A2993 RMK AO2A SLP134 T02340209 $ =
2018-09-19 17:56 METAR KWRI 192156Z 11004KT 10SM CLR 25/21 A2991 RMK AO2A SLP127 T02540208 $ =
2018-09-19 15:56 METAR KWRI 191956Z 34009KT 10SM CLR 28/19 A2987 RMK AO2A SLP114 T02820186 $ =
2018-09-19 14:56 METAR KWRI 191856Z 02005KT 10SM FEW040 28/19 A2988 RMK AO2A SLP117 T02830192 $ =
2018-09-19 13:56 METAR KWRI 191756Z 03008KT 10SM FEW037 FEW190 28/19 A2989 RMK AO2A SLP121
                 T02750190 10280 20205 50000 $ =

Support USWX by starting your Amazon purchase here.